LEBZ/BJZ METAR and TAF weather

Enter ICAO airport designator
Station Type Date Time Source
LEBZ METAR 2019/08/25 13:00 UTC NOAA

LEBZ 251300Z 29007KT 240V010 CAVOK 31/12 Q1013


Station Type Date Time Source
LEBZ Decoded METAR 2019/08/25 13:00 UTC NOAA

Station name not available
Aug 25, 2019 - 09:00 AM EDT / 2019.08.25 1300 UTC
Wind: from the WNW (290 degrees) at 8 MPH (7 KT) (direction variable):0
Visibility: greater than 7 mile(s):0
Temperature: 87 F (31 C)
Dew Point: 53 F (12 C)
Relative Humidity: 31%
Pressure (altimeter): 29.91 in. Hg (1013 hPa)
ob: LEBZ 251300Z 29007KT 240V010 CAVOK 31/12 Q1013
cycle: 13

Station Type Date Time Source
LEBZ TAF 2019/08/25 12:27 UTC NOAA

TAF LEBZ 251100Z 2512/2612 26008KT 9999 FEW040 TX36/2515Z TN16/2606Z PROB40
TEMPO 2515/2520 SCT040CB

Example: see airport list